createdAt,value
2022-08-03T00:01:25.454Z,1.90
2022-08-03T00:03:52.017Z,1.33
2022-08-03T00:08:45.244Z,2.13
2022-08-03T00:11:11.919Z,1.88
2022-08-03T00:13:38.449Z,1.83
2022-08-03T00:16:05.316Z,1.90
2022-08-03T00:18:31.862Z,2.22
2022-08-03T00:23:24.904Z,2.13
2022-08-03T00:25:51.683Z,1.98
2022-08-03T00:28:18.212Z,2.38
2022-08-03T00:30:44.973Z,1.67
2022-08-03T00:33:11.609Z,2.20
2022-08-03T00:38:17.043Z,1.95
2022-08-03T00:40:43.561Z,2.47
2022-08-03T00:43:10.810Z,2.03
2022-08-03T00:45:40.439Z,1.95
2022-08-03T00:48:33.316Z,2.10
2022-08-03T00:50:55.749Z,1.95
2022-08-03T00:55:48.941Z,2.17
2022-08-03T01:00:41.947Z,2.20
2022-08-03T01:06:20.323Z,1.85
2022-08-03T01:08:54.659Z,2.28
2022-08-03T01:11:32.633Z,2.22
2022-08-03T01:14:21.157Z,2.25
2022-08-03T01:16:59.522Z,2.33
2022-08-03T01:19:29.153Z,2.38
2022-08-03T01:22:30.379Z,2.20
2022-08-03T01:25:09.161Z,2.97
2022-08-03T01:27:56.891Z,2.30
2022-08-03T01:33:01.857Z,2.40
2022-08-03T01:35:47.115Z,2.83
2022-08-03T01:38:18.344Z,2.55
2022-08-03T01:40:47.076Z,2.70
2022-08-03T01:43:55.199Z,2.55
2022-08-03T01:46:06.705Z,2.53
2022-08-03T01:48:35.030Z,2.58
2022-08-03T01:51:01.985Z,2.50
2022-08-03T01:53:31.343Z,2.95
2022-08-03T01:55:58.895Z,2.78
2022-08-03T01:58:26.979Z,2.75
2022-08-03T02:00:59.361Z,2.80
2022-08-03T02:03:27.856Z,2.78
2022-08-03T02:06:17.853Z,2.83
2022-08-03T02:08:45.343Z,2.30
2022-08-03T02:11:13.025Z,2.25
2022-08-03T02:13:40.555Z,2.72
2022-08-03T02:16:08.320Z,2.80
2022-08-03T02:18:35.506Z,2.45
2022-08-03T02:21:05.496Z,2.78
2022-08-03T02:23:38.890Z,2.67
2022-08-03T02:26:09.288Z,2.65
2022-08-03T02:28:38.459Z,3.00
2022-08-03T02:31:11.685Z,2.85
2022-08-03T02:33:42.873Z,2.78
2022-08-03T02:36:13.231Z,2.30
2022-08-03T02:38:42.868Z,2.78
2022-08-03T02:41:16.555Z,3.33
2022-08-03T02:44:06.201Z,2.88
2022-08-03T02:46:38.469Z,2.97
2022-08-03T02:49:41.111Z,2.60
2022-08-03T02:51:55.218Z,2.63
2022-08-03T02:54:23.847Z,2.67
2022-08-03T02:56:53.775Z,2.60
2022-08-03T02:59:21.362Z,2.53
2022-08-03T03:01:48.920Z,2.67
2022-08-03T03:04:16.484Z,3.38
2022-08-03T03:06:44.202Z,2.95
2022-08-03T03:09:13.769Z,2.92
2022-08-03T03:11:41.353Z,3.38
2022-08-03T03:14:11.359Z,3.10
2022-08-03T03:16:39.383Z,2.80
2022-08-03T03:19:07.706Z,3.08
2022-08-03T03:21:36.575Z,3.05
2022-08-03T03:24:04.922Z,2.92
2022-08-03T03:26:32.145Z,2.67
2022-08-03T03:28:59.396Z,3.10
2022-08-03T03:31:26.077Z,2.63
2022-08-03T03:36:19.562Z,3.65
2022-08-03T03:38:46.179Z,2.72
2022-08-03T03:43:39.741Z,3.20
2022-08-03T03:46:06.551Z,2.67
2022-08-03T03:48:33.578Z,3.08
2022-08-03T03:51:01.193Z,3.67
2022-08-03T03:53:27.911Z,3.63
2022-08-03T03:55:59.237Z,3.28
2022-08-03T03:58:30.221Z,7.05
2022-08-03T04:00:57.032Z,7.72
2022-08-03T04:03:24.616Z,7.72
2022-08-03T04:06:10.140Z,10.30
2022-08-03T04:08:55.434Z,6.57
2022-08-03T04:11:30.376Z,5.07
2022-08-03T04:14:23.147Z,4.80
2022-08-03T04:16:53.680Z,5.10
2022-08-03T04:19:28.396Z,4.55
2022-08-03T04:22:00.435Z,3.92
2022-08-03T04:24:33.525Z,4.15
2022-08-03T04:27:02.853Z,3.38
2022-08-03T04:29:33.445Z,3.55
2022-08-03T04:32:04.518Z,2.67
2022-08-03T04:34:31.842Z,2.53
2022-08-03T04:37:02.590Z,2.78
2022-08-03T04:39:32.480Z,2.75
2022-08-03T04:42:07.805Z,2.28
2022-08-03T04:44:39.194Z,2.47
2022-08-03T04:47:07.930Z,2.70
2022-08-03T04:49:39.990Z,2.20
2022-08-03T04:52:17.867Z,2.60
2022-08-03T04:54:50.245Z,2.28
2022-08-03T04:57:23.231Z,2.65
2022-08-03T04:59:58.189Z,3.17
2022-08-03T05:02:28.565Z,2.47
2022-08-03T05:04:55.042Z,2.10
2022-08-03T05:07:25.107Z,2.65
2022-08-03T05:09:57.618Z,2.50
2022-08-03T05:12:32.826Z,2.75
2022-08-03T05:15:00.295Z,2.70
2022-08-03T05:17:27.320Z,2.92
2022-08-03T05:19:54.388Z,2.35
2022-08-03T05:22:21.558Z,2.28
2022-08-03T05:24:48.315Z,2.05
2022-08-03T05:27:19.266Z,2.25
2022-08-03T05:29:47.168Z,2.58
2022-08-03T05:32:13.691Z,2.47
2022-08-03T05:34:40.443Z,3.10
2022-08-03T05:37:07.444Z,2.40
2022-08-03T05:39:34.769Z,2.60
2022-08-03T05:42:02.211Z,2.50
2022-08-03T05:44:29.119Z,2.80
2022-08-03T05:46:57.679Z,2.70
2022-08-03T05:49:24.307Z,2.40
2022-08-03T05:52:00.439Z,2.30
2022-08-03T05:54:56.938Z,2.78
2022-08-03T05:57:23.197Z,2.95
2022-08-03T05:59:55.702Z,2.20
2022-08-03T06:02:26.407Z,2.88
2022-08-03T06:04:52.937Z,2.70
2022-08-03T06:07:19.570Z,3.08
2022-08-03T06:10:34.196Z,3.13
2022-08-03T06:12:35.999Z,3.22
2022-08-03T06:15:04.484Z,2.20
2022-08-03T06:17:37.601Z,2.78
2022-08-03T06:20:05.862Z,2.78
2022-08-03T06:22:32.415Z,2.95
2022-08-03T06:24:58.967Z,2.65
2022-08-03T06:27:36.291Z,3.00
2022-08-03T06:30:04.779Z,2.38
2022-08-03T06:32:31.327Z,2.72
2022-08-03T06:34:57.877Z,2.90
2022-08-03T06:37:24.569Z,2.92
2022-08-03T06:39:51.148Z,3.63
2022-08-03T06:42:17.931Z,3.03
2022-08-03T06:44:47.164Z,2.97
2022-08-03T06:47:13.713Z,2.22
2022-08-03T06:49:41.444Z,2.92
2022-08-03T06:52:08.054Z,3.47
2022-08-03T06:54:35.677Z,2.95
2022-08-03T06:57:02.672Z,2.55
2022-08-03T07:00:08.447Z,3.30
2022-08-03T07:02:19.396Z,2.85
2022-08-03T07:04:47.873Z,2.70
2022-08-03T07:07:14.458Z,2.70
2022-08-03T07:09:41.792Z,2.72
2022-08-03T07:12:08.698Z,1.92
2022-08-03T07:14:35.311Z,2.03
2022-08-03T07:17:04.591Z,2.65
2022-08-03T07:19:38.295Z,2.65
2022-08-03T07:22:04.892Z,2.90
2022-08-03T07:24:31.403Z,2.65
2022-08-03T07:26:57.945Z,2.67
2022-08-03T07:29:25.035Z,2.63
2022-08-03T07:31:51.679Z,2.33
2022-08-03T07:34:18.312Z,2.17
2022-08-03T07:36:44.852Z,2.75
2022-08-03T07:39:16.008Z,2.40
2022-08-03T07:41:44.716Z,2.30
2022-08-03T07:44:11.265Z,2.22
2022-08-03T07:46:37.808Z,2.72
2022-08-03T07:49:04.392Z,2.25
2022-08-03T07:51:30.996Z,2.50
2022-08-03T07:53:57.764Z,2.22
2022-08-03T07:56:27.245Z,2.30
2022-08-03T07:58:54.404Z,2.10
2022-08-03T08:01:21.392Z,2.40
2022-08-03T08:03:52.652Z,2.58
2022-08-03T08:06:20.913Z,2.53
2022-08-03T08:08:47.804Z,2.55
2022-08-03T08:11:14.833Z,2.22
2022-08-03T08:13:41.341Z,2.95
2022-08-03T08:16:07.935Z,2.47
2022-08-03T08:18:34.529Z,2.15
2022-08-03T08:21:03.225Z,2.83
2022-08-03T08:23:43.423Z,1.90
2022-08-03T08:26:11.998Z,2.28
2022-08-03T08:28:39.081Z,2.03
2022-08-03T08:31:05.601Z,2.10
2022-08-03T08:34:02.189Z,1.98
2022-08-03T08:36:21.457Z,1.88
2022-08-03T08:38:48.000Z,2.17
2022-08-03T08:41:15.583Z,1.70
2022-08-03T08:43:42.794Z,2.05
2022-08-03T08:46:13.023Z,1.45
2022-08-03T08:48:51.715Z,1.60
2022-08-03T08:51:20.893Z,1.30
2022-08-03T08:53:52.971Z,2.10
2022-08-03T08:56:20.446Z,1.45
2022-08-03T08:58:57.975Z,1.67
2022-08-03T09:01:25.182Z,1.60
2022-08-03T09:03:54.045Z,1.65
2022-08-03T09:06:22.446Z,1.60
2022-08-03T09:08:49.072Z,2.28
2022-08-03T09:11:15.729Z,1.67
2022-08-03T09:13:42.808Z,1.25
2022-08-03T09:16:15.225Z,1.52
2022-08-03T09:18:44.198Z,1.80
2022-08-03T09:21:32.024Z,1.60
2022-08-03T09:24:03.848Z,1.30
2022-08-03T09:26:32.603Z,1.10
2022-08-03T09:29:06.804Z,1.75
2022-08-03T09:31:39.958Z,1.08
2022-08-03T09:34:16.387Z,1.42
2022-08-03T09:36:45.875Z,1.35
2022-08-03T09:39:13.695Z,1.35
2022-08-03T09:41:45.807Z,1.05
2022-08-03T09:44:24.288Z,1.60
2022-08-03T09:46:56.530Z,1.30
2022-08-03T09:49:24.373Z,1.15
2022-08-03T09:52:30.130Z,1.15
2022-08-03T09:54:38.798Z,1.80
2022-08-03T09:57:05.488Z,1.27
2022-08-03T09:59:33.475Z,1.50
2022-08-03T10:02:00.886Z,1.00
2022-08-03T10:04:28.017Z,1.00
2022-08-03T10:07:10.773Z,0.80
2022-08-03T10:09:37.932Z,1.08
2022-08-03T10:12:13.062Z,1.15
2022-08-03T10:14:45.722Z,1.08
2022-08-03T10:17:12.456Z,1.52
2022-08-03T10:19:39.401Z,1.17
2022-08-03T10:22:22.766Z,1.05
2022-08-03T10:25:06.940Z,0.80
2022-08-03T10:27:42.285Z,1.20
2022-08-03T10:30:12.853Z,1.05
2022-08-03T10:33:02.695Z,0.90
2022-08-03T10:35:30.085Z,1.38
2022-08-03T10:38:00.490Z,0.98
2022-08-03T10:40:48.085Z,0.82
2022-08-03T10:43:25.971Z,1.00
2022-08-03T10:45:52.529Z,1.27
2022-08-03T10:48:19.870Z,1.13
2022-08-03T10:50:49.010Z,1.20
2022-08-03T10:53:16.637Z,1.25
2022-08-03T10:56:05.551Z,1.00
2022-08-03T10:58:38.204Z,1.10
2022-08-03T11:01:54.213Z,1.20
2022-08-03T11:04:27.215Z,1.02
2022-08-03T11:07:16.223Z,1.20
2022-08-03T11:09:45.045Z,1.08
2022-08-03T11:12:31.431Z,1.20
2022-08-03T11:15:01.406Z,1.10
2022-08-03T11:17:28.018Z,0.88
2022-08-03T11:19:57.432Z,1.50
2022-08-03T11:22:25.112Z,1.30
2022-08-03T11:24:53.982Z,0.80
2022-08-03T11:27:26.021Z,1.00
2022-08-03T11:30:03.214Z,1.08
2022-08-03T11:32:40.023Z,1.20
2022-08-03T11:35:20.293Z,1.20
2022-08-03T11:38:03.362Z,1.35
2022-08-03T11:40:42.795Z,1.08
2022-08-03T11:43:10.853Z,1.30
2022-08-03T11:45:38.075Z,1.05
2022-08-03T11:48:17.616Z,0.85
2022-08-03T11:50:45.431Z,1.20
2022-08-03T11:53:18.174Z,1.00
2022-08-03T11:55:49.480Z,1.15
2022-08-03T11:59:00.775Z,1.52
2022-08-03T12:01:08.661Z,1.10
2022-08-03T12:03:36.289Z,1.27
2022-08-03T12:06:04.387Z,1.00
2022-08-03T12:08:33.759Z,1.38
2022-08-03T12:11:04.449Z,1.40
2022-08-03T12:14:44.816Z,1.15
2022-08-03T12:16:39.981Z,1.17
2022-08-03T12:19:06.939Z,1.35
2022-08-03T12:21:33.713Z,1.10
2022-08-03T12:24:05.862Z,0.95
2022-08-03T12:26:54.525Z,1.40
2022-08-03T12:29:26.364Z,1.27
2022-08-03T12:31:53.001Z,1.20
2022-08-03T12:34:19.688Z,1.20
2022-08-03T12:36:56.769Z,1.25
2022-08-03T12:39:25.477Z,1.20
2022-08-03T12:41:56.782Z,1.08
2022-08-03T12:44:34.632Z,1.45
2022-08-03T12:47:02.759Z,1.02
2022-08-03T12:49:30.459Z,1.25
2022-08-03T12:52:02.823Z,1.20
2022-08-03T12:54:33.893Z,0.90
2022-08-03T12:57:01.551Z,1.15
2022-08-03T12:59:35.351Z,1.05
2022-08-03T13:02:23.707Z,1.05
2022-08-03T13:04:51.542Z,1.27
2022-08-03T13:07:19.511Z,1.05
2022-08-03T13:09:49.566Z,1.63
2022-08-03T13:12:21.333Z,0.90
2022-08-03T13:14:50.714Z,1.13
2022-08-03T13:17:18.377Z,1.05
2022-08-03T13:19:46.472Z,1.00
2022-08-03T13:22:17.247Z,1.33
2022-08-03T13:24:45.801Z,1.13
2022-08-03T13:27:22.087Z,1.17
2022-08-03T13:30:00.092Z,0.88
2022-08-03T13:32:26.649Z,1.40
2022-08-03T13:34:53.225Z,1.05
2022-08-03T13:37:19.993Z,0.98
2022-08-03T13:40:00.268Z,0.63
2022-08-03T13:42:31.024Z,1.08
2022-08-03T13:44:57.853Z,1.00
2022-08-03T13:47:24.710Z,1.20
2022-08-03T13:49:59.728Z,1.02
2022-08-03T13:52:33.675Z,1.23
2022-08-03T13:55:01.138Z,1.33
2022-08-03T13:58:04.545Z,1.00
2022-08-03T14:00:28.212Z,1.02
2022-08-03T14:03:12.807Z,1.13
2022-08-03T14:05:41.073Z,0.80
2022-08-03T14:08:07.860Z,0.80
2022-08-03T14:10:39.120Z,1.00
2022-08-03T14:13:06.184Z,1.00
2022-08-03T14:15:37.867Z,0.90
2022-08-03T14:18:04.818Z,0.98
2022-08-03T14:20:37.892Z,0.90
2022-08-03T14:23:07.161Z,1.00
2022-08-03T14:25:49.865Z,0.80
2022-08-03T14:28:23.060Z,0.73
2022-08-03T14:30:54.186Z,0.98
2022-08-03T14:33:20.741Z,1.10
2022-08-03T14:35:48.200Z,0.82
2022-08-03T14:38:15.230Z,1.10
2022-08-03T14:40:42.152Z,1.25
2022-08-03T14:43:08.762Z,1.30
2022-08-03T14:45:35.351Z,1.15
2022-08-03T14:50:24.979Z,1.23
2022-08-03T14:50:52.856Z,0.95
2022-08-03T14:53:20.048Z,1.38
2022-08-03T14:55:49.621Z,1.15
2022-08-03T14:58:20.636Z,1.30
2022-08-03T15:00:47.975Z,1.10
2022-08-03T15:03:16.786Z,1.42
2022-08-03T15:05:43.805Z,1.23
2022-08-03T15:08:10.325Z,1.13
2022-08-03T15:10:44.605Z,0.77
2022-08-03T15:13:15.316Z,1.00
2022-08-03T15:15:42.231Z,1.20
2022-08-03T15:18:08.964Z,1.63
2022-08-03T15:20:51.051Z,1.02
2022-08-03T15:23:18.454Z,1.00
2022-08-03T15:26:03.814Z,1.02
2022-08-03T15:28:33.087Z,1.20
2022-08-03T15:31:00.306Z,1.00
2022-08-03T15:33:26.930Z,1.70
2022-08-03T15:35:53.937Z,1.63
2022-08-03T15:38:26.217Z,0.93
2022-08-03T15:40:54.558Z,1.00
2022-08-03T15:43:22.171Z,1.13
2022-08-03T15:45:54.659Z,1.00
2022-08-03T15:48:35.256Z,1.23
2022-08-03T15:51:01.942Z,1.27
2022-08-03T15:53:28.466Z,1.85
2022-08-03T15:55:55.017Z,1.05
2022-08-03T15:59:04.449Z,0.93
2022-08-03T16:01:08.350Z,1.27
2022-08-03T16:03:35.482Z,1.02
2022-08-03T16:06:06.750Z,1.30
2022-08-03T16:08:33.655Z,1.27
2022-08-03T16:11:00.931Z,1.13
2022-08-03T16:14:12.871Z,1.45
2022-08-03T16:16:14.377Z,0.90
2022-08-03T16:18:41.929Z,1.02
2022-08-03T16:21:08.461Z,1.30
2022-08-03T16:23:40.345Z,1.23
2022-08-03T16:26:10.076Z,1.60
2022-08-03T16:28:38.703Z,1.20
2022-08-03T16:31:06.196Z,1.10
2022-08-03T16:33:33.422Z,1.45
2022-08-03T16:35:59.998Z,0.80
2022-08-03T16:38:26.915Z,1.42
2022-08-03T16:40:53.490Z,1.38
2022-08-03T16:43:22.457Z,1.10
2022-08-03T16:45:49.617Z,1.20
2022-08-03T16:48:17.187Z,1.45
2022-08-03T16:50:44.680Z,1.35
2022-08-03T16:53:16.676Z,1.35
2022-08-03T16:55:53.079Z,1.20
2022-08-03T16:58:34.858Z,0.88
2022-08-03T17:01:22.507Z,1.23
2022-08-03T17:04:04.894Z,1.30
2022-08-03T17:06:35.535Z,1.42
2022-08-03T17:09:08.415Z,1.20
2022-08-03T17:11:37.797Z,1.90
2022-08-03T17:14:09.206Z,1.20
2022-08-03T17:16:38.489Z,1.55
2022-08-03T17:19:06.907Z,1.20
2022-08-03T17:21:37.626Z,1.20
2022-08-03T17:24:27.254Z,1.20
2022-08-03T17:26:55.019Z,0.82
2022-08-03T17:29:30.039Z,1.02
2022-08-03T17:31:57.002Z,1.10
2022-08-03T17:34:26.570Z,1.60
2022-08-03T17:37:27.264Z,2.75
2022-08-03T17:42:31.320Z,1.38
2022-08-03T17:45:02.447Z,1.58
2022-08-03T17:47:42.949Z,1.27
2022-08-03T17:50:24.390Z,1.42
2022-08-03T17:53:07.606Z,1.27
2022-08-03T17:55:57.370Z,1.10
2022-08-03T17:59:50.891Z,1.27
2022-08-03T18:02:54.509Z,1.63
2022-08-03T18:06:11.370Z,1.05
2022-08-03T18:08:28.204Z,1.17
2022-08-03T18:11:35.884Z,1.15
2022-08-03T18:14:42.787Z,1.20
2022-08-03T18:17:58.145Z,1.13
2022-08-03T18:20:32.842Z,0.93
2022-08-03T18:23:04.652Z,1.10
2022-08-03T18:25:44.409Z,1.08
2022-08-03T18:28:18.891Z,0.90
2022-08-03T18:30:54.776Z,0.93
2022-08-03T18:34:19.727Z,1.20
2022-08-03T18:36:17.379Z,1.10
2022-08-03T18:38:48.018Z,1.17
2022-08-03T18:41:22.064Z,1.08
2022-08-03T18:44:08.661Z,1.02
2022-08-03T18:47:02.956Z,1.10
2022-08-03T18:49:53.205Z,0.98
2022-08-03T18:52:31.001Z,1.20
2022-08-03T18:55:21.538Z,1.33
2022-08-03T18:58:00.842Z,1.15
2022-08-03T19:00:42.470Z,1.10
2022-08-03T19:03:24.034Z,1.02
2022-08-03T19:06:09.477Z,1.20
2022-08-03T19:08:49.634Z,1.45
2022-08-03T19:12:12.795Z,1.10
2022-08-03T19:14:28.591Z,1.23
2022-08-03T19:17:09.879Z,1.80
2022-08-03T19:19:43.622Z,1.55
2022-08-03T19:22:19.648Z,1.20
2022-08-03T19:24:47.754Z,1.35
2022-08-03T19:27:15.938Z,1.38
2022-08-03T19:29:59.123Z,1.48
2022-08-03T19:32:29.450Z,1.15
2022-08-03T19:34:57.116Z,1.10
2022-08-03T19:37:27.505Z,1.10
2022-08-03T19:40:05.226Z,1.38
2022-08-03T19:42:44.403Z,1.50
2022-08-03T19:45:15.518Z,1.30
2022-08-03T19:47:52.506Z,1.70
2022-08-03T19:50:20.327Z,1.60
2022-08-03T19:52:49.708Z,1.50
2022-08-03T19:55:17.542Z,1.70
2022-08-03T19:57:49.270Z,2.08
2022-08-03T20:00:19.864Z,2.03
2022-08-03T20:02:47.270Z,1.30
2022-08-03T20:05:18.377Z,1.13
2022-08-03T20:07:47.885Z,2.20
2022-08-03T20:10:16.654Z,1.70
2022-08-03T20:12:46.969Z,1.77
2022-08-03T20:15:18.391Z,1.95
2022-08-03T20:17:54.348Z,2.05
2022-08-03T20:20:26.131Z,2.30
2022-08-03T20:22:57.646Z,2.30
2022-08-03T20:25:37.886Z,1.80
2022-08-03T20:28:14.154Z,1.75
2022-08-03T20:30:46.342Z,2.25
2022-08-03T20:33:18.748Z,1.35
2022-08-03T20:35:48.874Z,2.03
2022-08-03T20:38:18.565Z,1.50
2022-08-03T20:40:46.324Z,1.88
2022-08-03T20:43:12.896Z,1.77
2022-08-03T20:46:00.205Z,1.33
2022-08-03T20:48:28.113Z,1.67
2022-08-03T20:50:56.423Z,2.03
2022-08-03T20:53:57.012Z,2.10
2022-08-03T20:56:10.079Z,2.13
2022-08-03T20:58:36.982Z,2.20
2022-08-03T21:01:08.392Z,2.05
2022-08-03T21:03:41.123Z,2.17
2022-08-03T21:06:27.511Z,2.33
2022-08-03T21:09:05.169Z,2.05
2022-08-03T21:14:42.300Z,2.30
2022-08-03T21:17:19.437Z,2.10
2022-08-03T21:19:57.254Z,1.75
2022-08-03T21:22:25.864Z,2.30
2022-08-03T21:24:55.986Z,2.03
2022-08-03T21:27:24.662Z,1.90
2022-08-03T21:29:53.098Z,2.13
2022-08-03T21:32:32.554Z,2.10
2022-08-03T21:34:59.735Z,2.05
2022-08-03T21:37:27.561Z,2.15
2022-08-03T21:39:55.264Z,2.53
2022-08-03T21:42:25.776Z,2.40
2022-08-03T21:44:53.001Z,2.33
2022-08-03T21:47:22.851Z,1.90
2022-08-03T21:50:06.265Z,1.92
2022-08-03T21:52:40.376Z,2.00
2022-08-03T21:55:08.028Z,2.20
2022-08-03T21:57:37.718Z,2.08
2022-08-03T22:02:30.103Z,2.67
2022-08-03T22:04:58.705Z,2.15
2022-08-03T22:07:28.266Z,2.10
2022-08-03T22:10:01.075Z,1.73
2022-08-03T22:12:30.651Z,2.03
2022-08-03T22:15:01.366Z,2.30
2022-08-03T22:17:55.240Z,2.22
2022-08-03T22:20:19.920Z,2.80
2022-08-03T22:22:52.168Z,2.70
2022-08-03T22:25:27.363Z,2.87
2022-08-03T22:27:54.844Z,2.60
2022-08-03T22:30:21.703Z,2.50
2022-08-03T22:32:51.852Z,2.20
2022-08-03T22:35:20.711Z,2.28
2022-08-03T22:37:49.520Z,2.85
2022-08-03T22:40:16.811Z,2.50
2022-08-03T22:42:49.322Z,2.70
2022-08-03T22:46:06.845Z,1.80
2022-08-03T22:48:08.256Z,2.53
2022-08-03T22:50:34.917Z,2.53
2022-08-03T22:55:28.573Z,2.70
2022-08-03T22:57:56.208Z,2.17
2022-08-03T23:00:24.243Z,2.05
2022-08-03T23:02:53.732Z,3.00
2022-08-03T23:06:00.611Z,2.38
2022-08-03T23:08:12.366Z,2.60
2022-08-03T23:10:46.156Z,2.72
2022-08-03T23:13:16.450Z,2.10
2022-08-03T23:15:50.747Z,2.50
2022-08-03T23:18:20.812Z,2.20
2022-08-03T23:20:51.438Z,2.38
2022-08-03T23:23:19.859Z,2.95
2022-08-03T23:25:49.483Z,1.92
2022-08-03T23:28:16.857Z,2.33
2022-08-03T23:30:44.932Z,2.50
2022-08-03T23:33:13.731Z,2.60
2022-08-03T23:36:22.618Z,2.47
2022-08-03T23:38:48.489Z,2.30
2022-08-03T23:41:18.563Z,2.80
2022-08-03T23:43:52.098Z,2.65
2022-08-03T23:46:25.826Z,2.90
2022-08-03T23:48:53.835Z,3.17
2022-08-03T23:52:00.281Z,3.15
2022-08-03T23:54:45.062Z,3.05
2022-08-03T23:57:11.494Z,3.17
2022-08-03T23:59:55.699Z,2.60
